createdAt,value
2022-08-19T00:01:37.841Z,21.10
2022-08-19T00:04:07.602Z,21.00
2022-08-19T00:06:37.186Z,21.00
2022-08-19T00:09:06.000Z,21.00
2022-08-19T00:11:33.236Z,21.00
2022-08-19T00:14:00.240Z,21.00
2022-08-19T00:16:28.788Z,21.00
2022-08-19T00:18:56.649Z,21.00
2022-08-19T00:21:30.482Z,20.90
2022-08-19T00:23:59.342Z,20.90
2022-08-19T00:26:27.941Z,20.90
2022-08-19T00:28:55.849Z,20.80
2022-08-19T00:31:23.005Z,20.80
2022-08-19T00:33:51.841Z,20.80
2022-08-19T00:36:19.091Z,20.70
2022-08-19T00:38:46.522Z,20.70
2022-08-19T00:41:22.442Z,20.70
2022-08-19T00:44:07.307Z,20.70
2022-08-19T00:46:37.712Z,20.60
2022-08-19T00:49:15.987Z,20.60
2022-08-19T00:51:45.903Z,20.60
2022-08-19T00:54:13.757Z,20.60
2022-08-19T00:56:42.227Z,20.60
2022-08-19T00:59:10.936Z,20.60
2022-08-19T01:01:43.226Z,20.50
2022-08-19T01:04:10.722Z,20.50
2022-08-19T01:06:39.249Z,20.50
2022-08-19T01:09:06.579Z,20.50
2022-08-19T01:11:39.209Z,20.50
2022-08-19T01:14:08.264Z,20.50
2022-08-19T01:16:38.358Z,20.50
2022-08-19T01:19:17.189Z,20.50
2022-08-19T01:21:54.215Z,20.40
2022-08-19T01:24:21.155Z,20.50
2022-08-19T01:26:49.389Z,20.40
2022-08-19T01:29:16.646Z,20.40
2022-08-19T01:31:43.900Z,20.50
2022-08-19T01:34:11.185Z,20.50
2022-08-19T01:36:46.797Z,20.50
2022-08-19T01:39:17.993Z,20.50
2022-08-19T01:41:45.039Z,20.50
2022-08-19T01:44:18.044Z,20.50
2022-08-19T01:46:48.534Z,20.50
2022-08-19T01:49:18.507Z,20.50
2022-08-19T01:51:45.739Z,20.50
2022-08-19T01:54:27.067Z,20.50
2022-08-19T01:57:00.756Z,20.50
2022-08-19T01:59:28.731Z,20.50
2022-08-19T02:01:56.269Z,20.50
2022-08-19T02:04:24.524Z,20.50
2022-08-19T02:06:51.877Z,20.50
2022-08-19T02:09:18.909Z,20.40
2022-08-19T02:11:45.904Z,20.40
2022-08-19T02:14:12.876Z,20.40
2022-08-19T02:16:41.738Z,20.40
2022-08-19T02:19:08.804Z,20.40
2022-08-19T02:21:36.389Z,20.40
2022-08-19T02:24:03.938Z,20.40
2022-08-19T02:26:31.327Z,20.40
2022-08-19T02:28:58.389Z,20.40
2022-08-19T02:31:29.130Z,20.40
2022-08-19T02:33:57.484Z,20.40
2022-08-19T02:36:25.616Z,20.40
2022-08-19T02:38:54.427Z,20.40
2022-08-19T02:41:27.327Z,20.40
2022-08-19T02:44:26.235Z,20.30
2022-08-19T02:46:45.874Z,20.30
2022-08-19T02:49:13.568Z,20.30
2022-08-19T02:51:43.575Z,20.30
2022-08-19T02:54:13.753Z,20.30
2022-08-19T02:56:42.693Z,20.30
2022-08-19T02:59:11.495Z,20.30
2022-08-19T03:01:43.700Z,20.30
2022-08-19T03:04:14.577Z,20.20
2022-08-19T03:06:44.910Z,20.20
2022-08-19T03:09:12.991Z,20.20
2022-08-19T03:11:40.795Z,20.20
2022-08-19T03:14:09.739Z,20.20
2022-08-19T03:16:49.098Z,20.20
2022-08-19T03:19:19.447Z,20.10
2022-08-19T03:21:47.343Z,20.10
2022-08-19T03:24:16.370Z,20.10
2022-08-19T03:26:59.792Z,20.00
2022-08-19T03:29:32.811Z,20.00
2022-08-19T03:32:02.181Z,19.90
2022-08-19T03:34:34.398Z,19.90
2022-08-19T03:37:06.569Z,19.80
2022-08-19T03:39:34.037Z,19.80
2022-08-19T03:42:32.609Z,19.80
2022-08-19T03:44:51.166Z,19.80
2022-08-19T03:47:18.230Z,19.70
2022-08-19T03:49:45.873Z,19.70
2022-08-19T03:52:12.959Z,19.70
2022-08-19T03:54:40.512Z,19.60
2022-08-19T03:57:07.826Z,19.60
2022-08-19T03:59:36.714Z,19.50
2022-08-19T04:02:10.261Z,19.40
2022-08-19T04:04:39.689Z,19.40
2022-08-19T04:07:07.208Z,19.40
2022-08-19T04:09:37.747Z,19.40
2022-08-19T04:12:06.638Z,19.30
2022-08-19T04:14:34.858Z,19.30
2022-08-19T04:17:05.886Z,19.20
2022-08-19T04:19:35.577Z,19.20
2022-08-19T04:22:03.455Z,19.20
2022-08-19T04:24:30.885Z,19.10
2022-08-19T04:26:58.062Z,19.10
2022-08-19T04:29:28.040Z,19.00
2022-08-19T04:31:56.871Z,19.00
2022-08-19T04:34:27.738Z,19.00
2022-08-19T04:36:56.726Z,19.00
2022-08-19T04:39:48.575Z,19.00
2022-08-19T04:42:35.716Z,19.00
2022-08-19T04:45:05.282Z,18.90
2022-08-19T04:47:46.962Z,18.90
2022-08-19T04:50:18.761Z,18.90
2022-08-19T04:52:45.914Z,18.90
2022-08-19T04:55:14.841Z,18.80
2022-08-19T04:57:41.811Z,18.80
2022-08-19T05:00:10.786Z,18.90
2022-08-19T05:02:38.503Z,18.80
2022-08-19T05:05:07.725Z,18.80
2022-08-19T05:07:35.332Z,18.80
2022-08-19T05:10:03.753Z,18.80
2022-08-19T05:12:30.789Z,18.90
2022-08-19T05:14:59.285Z,18.90
2022-08-19T05:17:28.957Z,18.90
2022-08-19T05:20:16.067Z,18.90
2022-08-19T05:22:44.761Z,18.90
2022-08-19T05:25:15.692Z,18.90
2022-08-19T05:27:43.553Z,19.00
2022-08-19T05:30:12.177Z,19.00
2022-08-19T05:32:40.312Z,19.00
2022-08-19T05:35:08.007Z,19.00
2022-08-19T05:37:35.386Z,19.00
2022-08-19T05:40:02.643Z,19.10
2022-08-19T05:42:29.748Z,19.10
2022-08-19T05:44:57.847Z,19.10
2022-08-19T05:47:24.960Z,19.20
2022-08-19T05:49:52.219Z,19.20
2022-08-19T05:52:25.728Z,19.20
2022-08-19T05:54:57.021Z,19.30
2022-08-19T05:57:25.569Z,19.30
2022-08-19T05:59:58.231Z,19.30
2022-08-19T06:02:29.144Z,19.40
2022-08-19T06:04:56.192Z,19.40
2022-08-19T06:07:23.955Z,19.50
2022-08-19T06:10:00.036Z,19.50
2022-08-19T06:12:34.264Z,19.60
2022-08-19T06:15:04.687Z,19.60
2022-08-19T06:17:32.691Z,19.70
2022-08-19T06:20:00.490Z,19.70
2022-08-19T06:22:28.821Z,19.80
2022-08-19T06:24:56.887Z,19.80
2022-08-19T06:27:24.699Z,19.90
2022-08-19T06:29:51.679Z,20.00
2022-08-19T06:32:20.155Z,20.00
2022-08-19T06:34:47.766Z,20.00
2022-08-19T06:37:15.188Z,20.10
2022-08-19T06:39:44.299Z,20.10
2022-08-19T06:42:14.429Z,20.10
2022-08-19T06:44:48.919Z,20.20
2022-08-19T06:47:23.768Z,20.20
2022-08-19T06:50:00.979Z,20.30
2022-08-19T06:52:28.827Z,20.30
2022-08-19T06:54:59.693Z,20.40
2022-08-19T06:57:27.584Z,20.40
2022-08-19T06:59:56.157Z,20.40
2022-08-19T07:02:27.381Z,20.50
2022-08-19T07:04:54.900Z,20.50
2022-08-19T07:07:23.434Z,20.60
2022-08-19T07:09:59.085Z,20.60
2022-08-19T07:12:38.265Z,20.70
2022-08-19T07:15:06.526Z,20.60
2022-08-19T07:17:34.454Z,20.60
2022-08-19T07:20:05.177Z,20.70
2022-08-19T07:22:40.630Z,20.70
2022-08-19T07:25:09.377Z,20.70
2022-08-19T07:27:36.463Z,20.80
2022-08-19T07:30:04.642Z,20.80
2022-08-19T07:32:32.515Z,20.90
2022-08-19T07:35:01.860Z,20.90
2022-08-19T07:37:33.079Z,21.00
2022-08-19T07:40:01.687Z,21.00
2022-08-19T07:42:30.891Z,21.10
2022-08-19T07:44:59.638Z,21.20
2022-08-19T07:47:49.585Z,21.20
2022-08-19T07:50:14.508Z,21.20
2022-08-19T07:52:41.572Z,21.20
2022-08-19T07:55:13.640Z,21.30
2022-08-19T07:57:58.798Z,21.40
2022-08-19T08:00:26.589Z,21.40
2022-08-19T08:02:55.774Z,21.50
2022-08-19T08:05:44.243Z,21.50
2022-08-19T08:08:33.786Z,21.60
2022-08-19T08:11:01.566Z,21.70
2022-08-19T08:13:29.276Z,21.80
2022-08-19T08:15:57.500Z,21.90
2022-08-19T08:18:27.810Z,22.00
2022-08-19T08:20:58.123Z,22.10
2022-08-19T08:23:28.282Z,22.20
2022-08-19T08:25:57.659Z,22.30
2022-08-19T08:28:26.332Z,22.30
2022-08-19T08:30:58.314Z,22.40
2022-08-19T08:33:34.216Z,22.50
2022-08-19T08:36:12.084Z,22.60
2022-08-19T08:38:40.945Z,22.70
2022-08-19T08:41:20.780Z,22.70
2022-08-19T08:43:52.199Z,22.70
2022-08-19T08:46:44.992Z,22.80
2022-08-19T08:49:23.856Z,22.80
2022-08-19T08:52:04.875Z,22.80
2022-08-19T08:54:39.839Z,22.80
2022-08-19T08:57:15.351Z,22.90
2022-08-19T08:59:44.388Z,22.90
2022-08-19T09:02:11.328Z,23.00
2022-08-19T09:04:40.132Z,23.00
2022-08-19T09:07:35.268Z,23.00
2022-08-19T09:10:27.550Z,23.10
2022-08-19T09:13:23.391Z,23.10
2022-08-19T09:15:57.858Z,23.20
2022-08-19T09:18:25.216Z,23.30
2022-08-19T09:20:57.280Z,23.30
2022-08-19T09:23:27.063Z,23.30
2022-08-19T09:25:54.689Z,23.30
2022-08-19T09:28:22.619Z,23.30
2022-08-19T09:30:54.316Z,23.40
2022-08-19T09:33:21.261Z,23.40
2022-08-19T09:35:49.775Z,23.40
2022-08-19T09:38:20.749Z,23.40
2022-08-19T09:40:48.126Z,23.40
2022-08-19T09:43:15.178Z,23.50
2022-08-19T09:46:01.377Z,23.50
2022-08-19T09:48:28.494Z,23.50
2022-08-19T09:50:55.702Z,23.50
2022-08-19T09:53:25.351Z,23.50
2022-08-19T09:55:53.339Z,23.50
2022-08-19T09:58:24.675Z,23.60
2022-08-19T10:00:54.937Z,23.60
2022-08-19T10:03:25.548Z,23.60
2022-08-19T10:05:59.208Z,23.60
2022-08-19T10:08:29.652Z,23.60
2022-08-19T10:10:58.920Z,23.60
2022-08-19T10:13:28.764Z,23.60
2022-08-19T10:15:57.849Z,23.60
2022-08-19T10:18:26.581Z,23.60
2022-08-19T10:20:54.695Z,23.60
2022-08-19T10:23:22.359Z,23.70
2022-08-19T10:25:50.803Z,23.70
2022-08-19T10:28:19.222Z,23.70
2022-08-19T10:30:48.760Z,23.70
2022-08-19T10:33:27.099Z,23.90
2022-08-19T10:36:16.245Z,23.90
2022-08-19T10:38:52.389Z,24.00
2022-08-19T10:41:25.380Z,24.00
2022-08-19T10:43:55.491Z,24.10
2022-08-19T10:46:24.451Z,24.20
2022-08-19T10:48:52.767Z,24.30
2022-08-19T10:51:47.877Z,24.40
2022-08-19T10:54:16.037Z,24.50
2022-08-19T10:56:56.232Z,24.50
2022-08-19T10:59:31.437Z,24.70
2022-08-19T11:02:02.620Z,24.80
2022-08-19T11:04:29.793Z,24.80
2022-08-19T11:06:57.619Z,24.90
2022-08-19T11:09:33.675Z,25.00
2022-08-19T11:12:02.978Z,25.00
2022-08-19T11:14:34.409Z,24.90
2022-08-19T11:17:02.235Z,24.90
2022-08-19T11:19:29.292Z,24.90
2022-08-19T11:21:57.508Z,24.90
2022-08-19T11:24:27.308Z,24.90
2022-08-19T11:27:00.157Z,24.90
2022-08-19T11:29:29.105Z,24.90
2022-08-19T11:31:56.724Z,25.00
2022-08-19T11:34:28.608Z,25.10
2022-08-19T11:36:59.307Z,25.20
2022-08-19T11:39:30.388Z,25.30
2022-08-19T11:41:59.548Z,25.40
2022-08-19T11:44:27.116Z,25.50
2022-08-19T11:46:54.272Z,25.50
2022-08-19T11:49:22.307Z,25.50
2022-08-19T11:51:51.814Z,25.50
2022-08-19T11:54:20.908Z,25.60
2022-08-19T11:56:50.208Z,25.60
2022-08-19T11:59:17.209Z,25.70
2022-08-19T12:01:44.712Z,25.70
2022-08-19T12:04:12.228Z,25.80
2022-08-19T12:06:41.625Z,25.90
2022-08-19T12:09:10.615Z,25.90
2022-08-19T12:11:39.449Z,26.00
2022-08-19T12:14:08.323Z,26.00
2022-08-19T12:16:44.790Z,26.00
2022-08-19T12:19:22.513Z,26.10
2022-08-19T12:21:50.787Z,26.20
2022-08-19T12:24:24.078Z,26.20
2022-08-19T12:26:52.997Z,26.20
2022-08-19T12:29:23.733Z,26.20
2022-08-19T12:31:51.850Z,26.30
2022-08-19T12:34:20.961Z,26.40
2022-08-19T12:36:50.510Z,26.50
2022-08-19T12:39:17.820Z,26.60
2022-08-19T12:41:51.644Z,26.70
2022-08-19T12:44:29.607Z,26.80
2022-08-19T12:46:59.670Z,26.80
2022-08-19T12:49:52.796Z,26.90
2022-08-19T12:52:19.890Z,26.90
2022-08-19T12:54:54.369Z,27.00
2022-08-19T12:57:32.995Z,27.00
2022-08-19T13:00:14.572Z,27.10
2022-08-19T13:02:45.594Z,27.20
2022-08-19T13:05:17.038Z,27.20
2022-08-19T13:07:47.217Z,27.20
2022-08-19T13:10:18.905Z,27.30
2022-08-19T13:12:48.294Z,27.30
2022-08-19T13:15:23.814Z,27.40
2022-08-19T13:17:53.421Z,27.40
2022-08-19T13:20:22.163Z,27.40
2022-08-19T13:22:49.505Z,27.40
2022-08-19T13:25:20.590Z,27.40
2022-08-19T13:27:49.267Z,27.50
2022-08-19T13:30:36.350Z,27.40
2022-08-19T13:33:12.778Z,27.40
2022-08-19T13:35:53.028Z,27.40
2022-08-19T13:38:23.304Z,27.40
2022-08-19T13:40:53.184Z,27.40
2022-08-19T13:43:23.836Z,27.40
2022-08-19T13:45:56.980Z,27.50
2022-08-19T13:48:26.391Z,27.60
2022-08-19T13:50:53.449Z,27.70
2022-08-19T13:53:20.720Z,27.80
2022-08-19T13:55:47.786Z,27.80
2022-08-19T13:58:15.678Z,27.80
2022-08-19T14:00:45.899Z,27.80
2022-08-19T14:03:13.454Z,27.90
2022-08-19T14:05:40.616Z,27.90
2022-08-19T14:08:07.569Z,27.90
2022-08-19T14:10:34.913Z,28.00
2022-08-19T14:13:04.617Z,28.00
2022-08-19T14:15:32.082Z,28.00
2022-08-19T14:17:59.219Z,28.10
2022-08-19T14:20:26.559Z,28.20
2022-08-19T14:22:55.879Z,28.20
2022-08-19T14:25:26.544Z,28.20
2022-08-19T14:27:53.888Z,28.20
2022-08-19T14:30:29.377Z,28.20
2022-08-19T14:33:01.933Z,28.30
2022-08-19T14:35:33.680Z,28.30
2022-08-19T14:38:00.843Z,28.40
2022-08-19T14:40:30.631Z,28.50
2022-08-19T14:43:02.226Z,28.60
2022-08-19T14:45:29.971Z,28.70
2022-08-19T14:47:57.130Z,28.90
2022-08-19T14:50:24.109Z,29.10
2022-08-19T14:52:51.571Z,29.10
2022-08-19T14:55:19.173Z,29.10
2022-08-19T14:57:46.561Z,29.00
2022-08-19T15:00:14.553Z,28.90
2022-08-19T15:02:47.434Z,28.80
2022-08-19T15:05:14.465Z,28.80
2022-08-19T15:07:42.194Z,28.70
2022-08-19T15:10:11.873Z,28.70
2022-08-19T15:12:41.390Z,28.80
2022-08-19T15:15:18.292Z,28.70
2022-08-19T15:17:47.566Z,28.70
2022-08-19T15:20:19.123Z,28.60
2022-08-19T15:22:47.263Z,28.50
2022-08-19T15:25:17.008Z,28.40
2022-08-19T15:27:44.448Z,28.20
2022-08-19T15:30:13.014Z,28.00
2022-08-19T15:32:40.534Z,27.80
2022-08-19T15:35:08.753Z,27.70
2022-08-19T15:37:37.558Z,27.50
2022-08-19T15:40:06.244Z,27.30
2022-08-19T15:42:34.088Z,27.00
2022-08-19T15:45:04.132Z,26.80
2022-08-19T15:47:34.531Z,26.70
2022-08-19T15:50:11.320Z,26.50
2022-08-19T15:52:50.149Z,26.40
2022-08-19T15:55:32.426Z,26.30
2022-08-19T15:58:28.620Z,26.20
2022-08-19T16:01:20.590Z,26.20
2022-08-19T16:04:13.848Z,26.10
2022-08-19T16:06:47.477Z,26.00
2022-08-19T16:09:16.240Z,26.00
2022-08-19T16:11:46.092Z,25.80
2022-08-19T16:14:15.530Z,25.90
2022-08-19T16:16:46.884Z,25.80
2022-08-19T16:19:16.341Z,25.80
2022-08-19T16:21:50.206Z,25.80
2022-08-19T16:24:20.046Z,25.70
2022-08-19T16:26:48.501Z,25.60
2022-08-19T16:29:33.304Z,25.60
2022-08-19T16:32:03.718Z,25.50
2022-08-19T16:34:30.977Z,25.50
2022-08-19T16:36:58.092Z,25.50
2022-08-19T16:39:25.244Z,25.60
2022-08-19T16:41:52.211Z,25.40
2022-08-19T16:44:21.284Z,25.30
2022-08-19T16:46:55.701Z,25.20
2022-08-19T16:49:53.389Z,25.20
2022-08-19T16:52:19.338Z,25.30
2022-08-19T16:54:46.443Z,25.40
2022-08-19T16:57:13.830Z,25.40
2022-08-19T16:59:42.499Z,25.50
2022-08-19T17:02:15.702Z,25.50
2022-08-19T17:04:42.752Z,25.50
2022-08-19T17:07:10.605Z,25.50
2022-08-19T17:09:38.014Z,25.60
2022-08-19T17:12:05.735Z,25.50
2022-08-19T17:14:32.846Z,25.50
2022-08-19T17:16:59.908Z,25.50
2022-08-19T17:19:28.380Z,25.50
2022-08-19T17:21:56.342Z,25.50
2022-08-19T17:24:26.684Z,25.50
2022-08-19T17:26:53.613Z,25.60
2022-08-19T17:29:20.636Z,25.60
2022-08-19T17:31:47.602Z,25.60
2022-08-19T17:34:14.895Z,25.60
2022-08-19T17:36:42.127Z,25.60
2022-08-19T17:39:09.183Z,25.50
2022-08-19T17:41:36.278Z,25.50
2022-08-19T17:44:04.173Z,25.40
2022-08-19T17:46:31.417Z,25.40
2022-08-19T17:48:58.975Z,25.40
2022-08-19T17:51:40.881Z,25.30
2022-08-19T17:54:12.366Z,25.30
2022-08-19T17:56:39.721Z,25.20
2022-08-19T17:59:10.843Z,25.20
2022-08-19T18:01:52.579Z,25.10
2022-08-19T18:04:22.754Z,25.10
2022-08-19T18:06:53.067Z,25.00
2022-08-19T18:09:24.274Z,25.00
2022-08-19T18:11:53.598Z,24.90
2022-08-19T18:14:28.092Z,24.90
2022-08-19T18:16:59.973Z,24.80
2022-08-19T18:19:41.364Z,24.70
2022-08-19T18:22:11.223Z,24.60
2022-08-19T18:24:40.707Z,24.50
2022-08-19T18:27:07.687Z,24.50
2022-08-19T18:29:38.682Z,24.40
2022-08-19T18:32:09.304Z,24.40
2022-08-19T18:34:37.262Z,24.30
2022-08-19T18:37:04.516Z,24.30
2022-08-19T18:39:50.466Z,24.20
2022-08-19T18:42:37.440Z,24.10
2022-08-19T18:45:24.967Z,24.10
2022-08-19T18:48:23.997Z,24.00
2022-08-19T18:50:56.005Z,23.90
2022-08-19T18:53:23.405Z,23.80
2022-08-19T18:55:54.075Z,23.80
2022-08-19T18:58:26.119Z,23.80
2022-08-19T19:00:57.530Z,23.70
2022-08-19T19:03:26.343Z,23.70
2022-08-19T19:05:54.059Z,23.60
2022-08-19T19:08:27.276Z,23.60
2022-08-19T19:10:55.552Z,23.60
2022-08-19T19:13:22.905Z,23.50
2022-08-19T19:15:49.887Z,23.50
2022-08-19T19:18:16.919Z,23.50
2022-08-19T19:20:44.222Z,23.50
2022-08-19T19:23:11.366Z,23.50
2022-08-19T19:25:50.609Z,23.50
2022-08-19T19:28:30.705Z,23.50
2022-08-19T19:30:58.726Z,23.50
2022-08-19T19:33:27.724Z,23.40
2022-08-19T19:35:55.100Z,23.40
2022-08-19T19:38:22.145Z,23.40
2022-08-19T19:40:49.164Z,23.40
2022-08-19T19:43:17.272Z,23.40
2022-08-19T19:45:44.919Z,23.40
2022-08-19T19:48:13.830Z,23.40
2022-08-19T19:50:41.342Z,23.40
2022-08-19T19:53:08.415Z,23.30
2022-08-19T19:55:36.958Z,23.30
2022-08-19T19:58:07.236Z,23.30
2022-08-19T20:00:34.706Z,23.30
2022-08-19T20:03:02.081Z,23.10
2022-08-19T20:05:29.206Z,23.10
2022-08-19T20:08:15.162Z,23.10
2022-08-19T20:10:43.398Z,23.10
2022-08-19T20:13:12.005Z,23.10
2022-08-19T20:15:42.591Z,23.10
2022-08-19T20:18:11.252Z,23.10
2022-08-19T20:20:38.364Z,23.10
2022-08-19T20:23:05.526Z,23.10
2022-08-19T20:25:32.987Z,23.20
2022-08-19T20:28:01.477Z,23.40
2022-08-19T20:30:32.082Z,23.40
2022-08-19T20:33:00.441Z,23.50
2022-08-19T20:35:27.617Z,23.50
2022-08-19T20:37:58.249Z,23.60
2022-08-19T20:40:29.627Z,23.60
2022-08-19T20:42:56.926Z,23.60
2022-08-19T20:45:32.801Z,23.60
2022-08-19T20:48:03.136Z,23.60
2022-08-19T20:50:35.346Z,23.60
2022-08-19T20:53:09.066Z,23.60
2022-08-19T20:55:36.406Z,23.60
2022-08-19T20:58:04.006Z,23.70
2022-08-19T21:00:31.289Z,23.70
2022-08-19T21:02:58.238Z,23.60
2022-08-19T21:05:30.253Z,23.60
2022-08-19T21:07:57.853Z,23.60
2022-08-19T21:10:26.469Z,23.60
2022-08-19T21:12:53.709Z,23.70
2022-08-19T21:15:20.737Z,23.70
2022-08-19T21:17:48.775Z,23.70
2022-08-19T21:20:15.925Z,23.70
2022-08-19T21:22:43.076Z,23.60
2022-08-19T21:25:11.060Z,23.60
2022-08-19T21:27:38.389Z,23.60
2022-08-19T21:30:06.916Z,23.60
2022-08-19T21:32:33.900Z,23.60
2022-08-19T21:35:02.315Z,23.60
2022-08-19T21:37:29.832Z,23.60
2022-08-19T21:39:56.900Z,23.60
2022-08-19T21:42:24.489Z,23.60
2022-08-19T21:44:51.763Z,23.60
2022-08-19T21:47:18.776Z,23.60
2022-08-19T21:49:46.236Z,23.60
2022-08-19T21:52:13.606Z,23.60
2022-08-19T21:54:40.936Z,23.50
2022-08-19T21:57:10.354Z,23.50
2022-08-19T21:59:43.780Z,23.50
2022-08-19T22:02:20.381Z,23.50
2022-08-19T22:04:53.103Z,23.50
2022-08-19T22:07:22.078Z,23.40
2022-08-19T22:09:50.743Z,23.40
2022-08-19T22:12:27.632Z,23.40
2022-08-19T22:14:55.606Z,23.40
2022-08-19T22:17:23.540Z,23.30
2022-08-19T22:19:52.585Z,23.30
2022-08-19T22:22:26.412Z,23.30
2022-08-19T22:24:54.747Z,23.20
2022-08-19T22:27:21.828Z,23.20
2022-08-19T22:29:52.468Z,23.20
2022-08-19T22:32:28.174Z,23.20
2022-08-19T22:34:58.784Z,23.20
2022-08-19T22:37:27.737Z,23.20
2022-08-19T22:39:55.999Z,23.20
2022-08-19T22:42:24.971Z,23.10
2022-08-19T22:44:59.130Z,23.10
2022-08-19T22:47:27.178Z,23.10
2022-08-19T22:49:59.059Z,23.10
2022-08-19T22:52:26.169Z,23.10
2022-08-19T22:54:55.688Z,23.00
2022-08-19T22:57:23.879Z,23.10
2022-08-19T22:59:52.646Z,23.00
2022-08-19T23:02:25.042Z,23.00
2022-08-19T23:04:52.882Z,23.00
2022-08-19T23:07:23.568Z,23.00
2022-08-19T23:09:51.408Z,23.00
2022-08-19T23:12:31.337Z,23.00
2022-08-19T23:15:04.917Z,23.00
2022-08-19T23:17:32.010Z,22.90
2022-08-19T23:20:00.205Z,22.80
2022-08-19T23:22:27.389Z,22.80
2022-08-19T23:24:56.141Z,22.80
2022-08-19T23:27:42.086Z,22.70
2022-08-19T23:30:27.797Z,22.70
2022-08-19T23:32:55.914Z,22.70
2022-08-19T23:35:24.446Z,22.70
2022-08-19T23:37:52.295Z,22.70
2022-08-19T23:40:22.177Z,22.60
2022-08-19T23:42:50.667Z,22.60
2022-08-19T23:45:21.559Z,22.60
2022-08-19T23:47:51.109Z,22.50
2022-08-19T23:50:21.662Z,22.50
2022-08-19T23:52:54.353Z,22.50
2022-08-19T23:55:24.952Z,22.50
2022-08-19T23:57:52.177Z,22.40
